createdAt,value
2022-10-10T00:00:14.418Z,95750.19
2022-10-10T00:02:43.806Z,95754.25
2022-10-10T00:05:13.168Z,95752.38
2022-10-10T00:07:42.553Z,95748.88
2022-10-10T00:10:12.123Z,95744.66
2022-10-10T00:12:41.665Z,95746.28
2022-10-10T00:15:15.057Z,95736.09
2022-10-10T00:17:44.867Z,95730.50
2022-10-10T00:20:17.078Z,95734.78
2022-10-10T00:22:46.584Z,95734.53
2022-10-10T00:25:16.602Z,95728.09
2022-10-10T00:27:45.997Z,95734.59
2022-10-10T00:30:19.451Z,95734.34
2022-10-10T00:32:49.219Z,95734.59
2022-10-10T00:35:20.281Z,95736.22
2022-10-10T00:37:49.638Z,95734.09
2022-10-10T00:40:19.120Z,95736.53
2022-10-10T00:42:49.209Z,95733.63
2022-10-10T00:45:34.368Z,95736.06
2022-10-10T00:48:09.670Z,95737.44
2022-10-10T00:50:45.962Z,95733.44
2022-10-10T00:53:18.589Z,95731.81
2022-10-10T00:55:48.552Z,95729.69
2022-10-10T00:58:20.041Z,95731.31
2022-10-10T01:00:52.433Z,95725.94
2022-10-10T01:03:22.581Z,95724.06
2022-10-10T01:05:52.465Z,95728.38
2022-10-10T01:08:23.217Z,95732.44
2022-10-10T01:11:13.762Z,95728.69
2022-10-10T01:13:56.656Z,95728.97
2022-10-10T01:16:37.268Z,95729.53
2022-10-10T01:19:48.456Z,95722.84
2022-10-10T01:22:34.129Z,95720.47
2022-10-10T01:25:24.453Z,95709.25
2022-10-10T01:28:01.915Z,95708.19
2022-10-10T01:30:34.298Z,95712.25
2022-10-10T01:33:14.453Z,95712.78
2022-10-10T01:35:52.467Z,95713.59
2022-10-10T01:38:31.831Z,95714.16
2022-10-10T01:41:10.453Z,95711.22
2022-10-10T01:43:41.782Z,95720.91
2022-10-10T01:46:20.178Z,95718.22
2022-10-10T01:48:52.477Z,95722.84
2022-10-10T01:52:17.108Z,95710.84
2022-10-10T01:55:25.256Z,95723.00
2022-10-10T01:58:29.999Z,95723.84
2022-10-10T02:01:10.915Z,95709.09
2022-10-10T02:03:48.638Z,95709.44
2022-10-10T02:06:32.820Z,95711.63
2022-10-10T02:09:13.363Z,95707.09
2022-10-10T02:12:27.047Z,95706.88
2022-10-10T02:15:10.709Z,95706.59
2022-10-10T02:17:43.449Z,95706.34
2022-10-10T02:20:24.221Z,95700.97
2022-10-10T02:22:57.384Z,95700.41
2022-10-10T02:25:31.215Z,95708.78
2022-10-10T02:28:12.369Z,95706.09
2022-10-10T02:31:30.205Z,95705.28
2022-10-10T02:34:10.247Z,95691.94
2022-10-10T02:37:02.734Z,95689.78
2022-10-10T02:39:38.094Z,95690.59
2022-10-10T02:42:13.701Z,95696.50
2022-10-10T02:44:44.334Z,95705.63
2022-10-10T02:47:14.279Z,95698.63
2022-10-10T02:49:44.588Z,95693.31
2022-10-10T02:52:17.861Z,95694.41
2022-10-10T02:54:47.389Z,95697.34
2022-10-10T02:57:16.923Z,95697.09
2022-10-10T02:59:46.438Z,95701.66
2022-10-10T03:02:15.998Z,95701.94
2022-10-10T03:04:45.752Z,95706.25
2022-10-10T03:07:16.662Z,95703.25
2022-10-10T03:09:46.019Z,95691.75
2022-10-10T03:12:15.626Z,95699.81
2022-10-10T03:14:45.145Z,95696.00
2022-10-10T03:17:14.691Z,95701.91
2022-10-10T03:19:44.090Z,95708.59
2022-10-10T03:22:13.600Z,95706.97
2022-10-10T03:24:44.436Z,95702.97
2022-10-10T03:27:14.113Z,95709.16
2022-10-10T03:29:43.473Z,95711.03
2022-10-10T03:32:12.941Z,95710.47
2022-10-10T03:34:42.383Z,95710.47
2022-10-10T03:37:11.824Z,95713.13
2022-10-10T03:39:41.257Z,95699.94
2022-10-10T03:42:11.977Z,95707.25
2022-10-10T03:44:41.424Z,95702.88
2022-10-10T03:47:10.765Z,95712.00
2022-10-10T03:49:40.568Z,95706.09
2022-10-10T03:52:10.017Z,95716.28
2022-10-10T03:54:39.470Z,95710.91
2022-10-10T03:57:08.860Z,95716.56
2022-10-10T03:59:39.594Z,95706.63
2022-10-10T04:02:08.981Z,95706.13
2022-10-10T04:04:38.488Z,95708.78
2022-10-10T04:07:08.042Z,95708.81
2022-10-10T04:09:37.520Z,95707.16
2022-10-10T04:12:07.219Z,95707.72
2022-10-10T04:14:36.618Z,95708.47
2022-10-10T04:17:07.349Z,95706.59
2022-10-10T04:19:36.700Z,95708.47
2022-10-10T04:22:10.808Z,95712.53
2022-10-10T04:24:40.542Z,95709.84
2022-10-10T04:27:10.339Z,95711.44
2022-10-10T04:29:39.720Z,95709.56
2022-10-10T04:32:10.466Z,95709.81
2022-10-10T04:34:40.085Z,95707.09
2022-10-10T04:37:09.803Z,95701.72
2022-10-10T04:39:39.253Z,95704.16
2022-10-10T04:42:08.691Z,95706.28
2022-10-10T04:44:38.071Z,95704.97
2022-10-10T04:47:08.850Z,95700.09
2022-10-10T04:49:38.214Z,95701.19
2022-10-10T04:52:07.565Z,95701.44
2022-10-10T04:54:37.100Z,95702.75
2022-10-10T04:57:06.917Z,95696.31
2022-10-10T04:59:36.366Z,95698.44
2022-10-10T05:02:05.876Z,95697.38
2022-10-10T05:04:36.664Z,95698.19
2022-10-10T05:07:06.062Z,95706.25
2022-10-10T05:09:35.804Z,95697.13
2022-10-10T05:12:05.800Z,95714.31
2022-10-10T05:14:35.265Z,95709.75
2022-10-10T05:17:04.940Z,95713.25
2022-10-10T05:19:35.955Z,95715.13
2022-10-10T05:22:07.527Z,95714.31
2022-10-10T05:24:37.236Z,95706.81
2022-10-10T05:27:07.199Z,95716.72
2022-10-10T05:29:36.603Z,95710.28
2022-10-10T05:32:10.061Z,95711.91
2022-10-10T05:34:42.050Z,95715.16
2022-10-10T05:37:12.270Z,95707.34
2022-10-10T05:39:43.472Z,95713.53
2022-10-10T05:42:22.176Z,95707.34
2022-10-10T05:44:51.735Z,95706.84
2022-10-10T05:47:25.408Z,95708.97
2022-10-10T05:49:58.286Z,95710.84
2022-10-10T05:52:29.113Z,95713.28
2022-10-10T05:55:44.541Z,95719.47
2022-10-10T05:58:14.701Z,95713.03
2022-10-10T06:00:46.451Z,95714.66
2022-10-10T06:03:17.503Z,95716.78
2022-10-10T06:05:52.440Z,95721.59
2022-10-10T06:08:21.912Z,95726.41
2022-10-10T06:10:51.501Z,95723.97
2022-10-10T06:13:24.457Z,95724.22
2022-10-10T06:15:54.984Z,95727.16
2022-10-10T06:18:24.285Z,95726.09
2022-10-10T06:20:55.173Z,95721.53
2022-10-10T06:23:24.745Z,95732.28
2022-10-10T06:25:54.149Z,95725.03
2022-10-10T06:28:23.950Z,95731.78
2022-10-10T06:30:53.804Z,95738.50
2022-10-10T06:33:23.219Z,95732.88
2022-10-10T06:35:54.459Z,95737.19
2022-10-10T06:38:24.834Z,95744.50
2022-10-10T06:40:58.502Z,95746.06
2022-10-10T06:43:30.045Z,95749.63
2022-10-10T06:46:00.147Z,95752.34
2022-10-10T06:48:31.327Z,95756.16
2022-10-10T06:51:05.657Z,95754.56
2022-10-10T06:53:36.013Z,95745.19
2022-10-10T06:56:05.801Z,95746.28
2022-10-10T06:58:35.534Z,95750.59
2022-10-10T07:01:06.544Z,95755.22
2022-10-10T07:03:36.012Z,95759.81
2022-10-10T07:06:12.578Z,95757.97
2022-10-10T07:08:43.204Z,95760.69
2022-10-10T07:11:13.544Z,95762.06
2022-10-10T07:13:43.079Z,95758.88
2022-10-10T07:16:12.731Z,95771.81
2022-10-10T07:18:42.214Z,95765.41
2022-10-10T07:21:13.037Z,95767.03
2022-10-10T07:23:42.562Z,95761.44
2022-10-10T07:26:15.153Z,95765.53
2022-10-10T07:28:44.690Z,95769.59
2022-10-10T07:31:14.156Z,95766.66
2022-10-10T07:33:50.174Z,95773.41
2022-10-10T07:36:21.682Z,95776.97
2022-10-10T07:38:53.165Z,95770.25
2022-10-10T07:41:23.129Z,95776.44
2022-10-10T07:43:56.627Z,95778.88
2022-10-10T07:46:26.085Z,95782.41
2022-10-10T07:48:56.681Z,95785.41
2022-10-10T07:51:27.598Z,95784.84
2022-10-10T07:53:57.129Z,95785.97
2022-10-10T07:56:27.045Z,95790.81
2022-10-10T07:58:56.502Z,95792.72
2022-10-10T08:01:26.051Z,95794.63
2022-10-10T08:03:57.900Z,95789.50
2022-10-10T08:06:28.869Z,95794.09
2022-10-10T08:08:58.255Z,95786.81
2022-10-10T08:11:27.746Z,95787.88
2022-10-10T08:13:57.116Z,95792.75
2022-10-10T08:16:26.758Z,95792.47
2022-10-10T08:18:56.197Z,95794.38
2022-10-10T08:21:25.714Z,95796.25
2022-10-10T08:23:57.052Z,95794.59
2022-10-10T08:26:26.537Z,95804.03
2022-10-10T08:28:56.162Z,95797.25
2022-10-10T08:31:25.742Z,95793.16
2022-10-10T08:33:58.178Z,95797.47
2022-10-10T08:36:27.889Z,95801.72
2022-10-10T08:39:00.957Z,95801.97
2022-10-10T08:41:40.429Z,95804.09
2022-10-10T08:44:22.639Z,95805.94
2022-10-10T08:46:57.885Z,95813.97
2022-10-10T08:49:36.117Z,95807.19
2022-10-10T08:52:15.263Z,95811.69
2022-10-10T08:54:48.058Z,95814.63
2022-10-10T08:57:27.378Z,95805.59
2022-10-10T09:00:04.790Z,95810.34
2022-10-10T09:02:56.319Z,95807.84
2022-10-10T09:05:47.391Z,95806.69
2022-10-10T09:08:46.594Z,95804.16
2022-10-10T09:11:39.743Z,95808.31
2022-10-10T09:14:35.235Z,95806.03
2022-10-10T09:17:20.394Z,95813.16
2022-10-10T09:20:08.610Z,95811.06
2022-10-10T09:22:53.930Z,95808.84
2022-10-10T09:25:29.154Z,95810.06
2022-10-10T09:28:09.727Z,95807.25
2022-10-10T09:30:48.025Z,95804.66
2022-10-10T09:33:29.354Z,95800.91
2022-10-10T09:36:00.503Z,95804.53
2022-10-10T09:38:39.075Z,95805.41
2022-10-10T09:41:18.788Z,95809.06
2022-10-10T09:43:55.028Z,95804.34
2022-10-10T09:46:24.909Z,95802.16
2022-10-10T09:48:55.965Z,95806.13
2022-10-10T09:51:25.558Z,95805.06
2022-10-10T09:53:54.990Z,95809.09
2022-10-10T09:56:29.107Z,95810.63
2022-10-10T09:59:00.131Z,95802.69
2022-10-10T10:01:33.417Z,95805.13
2022-10-10T10:04:31.403Z,95805.16
2022-10-10T10:07:19.964Z,95810.19
2022-10-10T10:09:52.460Z,95809.03
2022-10-10T10:12:26.895Z,95795.50
2022-10-10T10:15:04.774Z,95802.66
2022-10-10T10:17:34.563Z,95804.38
2022-10-10T10:20:08.778Z,95803.53
2022-10-10T10:22:40.939Z,95809.38
2022-10-10T10:25:32.755Z,95808.78
2022-10-10T10:28:23.363Z,95806.75
2022-10-10T10:31:00.852Z,95801.47
2022-10-10T10:33:46.567Z,95806.91
2022-10-10T10:36:38.537Z,95807.91
2022-10-10T10:39:30.210Z,95814.66
2022-10-10T10:42:16.243Z,95815.50
2022-10-10T10:44:53.770Z,95811.06
2022-10-10T10:47:43.231Z,95816.81
2022-10-10T10:50:38.387Z,95809.56
2022-10-10T10:53:24.901Z,95802.75
2022-10-10T10:56:14.689Z,95805.69
2022-10-10T10:59:41.815Z,95796.94
2022-10-10T11:02:26.520Z,95798.91
2022-10-10T11:05:42.152Z,95794.13
2022-10-10T11:08:48.968Z,95794.13
2022-10-10T11:11:42.575Z,95784.50
2022-10-10T11:14:38.317Z,95791.72
2022-10-10T11:17:19.583Z,95783.97
2022-10-10T11:19:57.951Z,95781.06
2022-10-10T11:22:36.293Z,95778.66
2022-10-10T11:25:16.663Z,95774.31
2022-10-10T11:27:54.614Z,95775.00
2022-10-10T11:30:26.731Z,95776.28
2022-10-10T11:33:05.403Z,95770.41
2022-10-10T11:35:44.722Z,95772.97
2022-10-10T11:38:28.303Z,95767.38
2022-10-10T11:41:02.906Z,95765.63
2022-10-10T11:43:45.198Z,95773.53
2022-10-10T11:46:29.375Z,95766.16
2022-10-10T11:49:09.894Z,95769.41
2022-10-10T11:52:21.498Z,95767.81
2022-10-10T11:55:04.806Z,95766.38
2022-10-10T11:57:44.478Z,95765.91
2022-10-10T12:00:17.684Z,95769.13
2022-10-10T12:02:48.782Z,95757.91
2022-10-10T12:05:24.501Z,95763.84
2022-10-10T12:08:17.967Z,95765.94
2022-10-10T12:10:58.064Z,95761.63
2022-10-10T12:13:35.179Z,95766.91
2022-10-10T12:16:09.455Z,95768.69
2022-10-10T12:18:46.901Z,95767.06
2022-10-10T12:21:20.708Z,95770.13
2022-10-10T12:24:01.689Z,95780.19
2022-10-10T12:27:44.443Z,95769.28
2022-10-10T12:30:24.758Z,95765.75
2022-10-10T12:32:55.281Z,95767.81
2022-10-10T12:35:41.719Z,95768.78
2022-10-10T12:38:24.333Z,95770.38
2022-10-10T12:41:15.908Z,95777.28
2022-10-10T12:44:23.086Z,95771.34
2022-10-10T12:47:52.656Z,95767.78
2022-10-10T12:50:27.778Z,95760.06
2022-10-10T12:53:00.853Z,95761.81
2022-10-10T12:55:34.082Z,95758.47
2022-10-10T12:58:10.472Z,95764.06
2022-10-10T13:00:48.846Z,95766.13
2022-10-10T13:03:25.570Z,95761.63
2022-10-10T13:05:57.437Z,95766.75
2022-10-10T13:08:30.243Z,95762.59
2022-10-10T13:11:09.615Z,95768.06
2022-10-10T13:13:40.789Z,95769.34
2022-10-10T13:16:18.836Z,95756.84
2022-10-10T13:18:52.910Z,95760.50
2022-10-10T13:21:25.875Z,95761.78
2022-10-10T13:24:03.757Z,95762.59
2022-10-10T13:26:39.506Z,95761.00
2022-10-10T13:29:24.401Z,95765.63
2022-10-10T13:32:00.191Z,95762.09
2022-10-10T13:34:34.601Z,95762.59
2022-10-10T13:37:06.569Z,95767.78
2022-10-10T13:39:39.814Z,95764.69
2022-10-10T13:42:30.193Z,95768.38
2022-10-10T13:45:02.082Z,95762.91
2022-10-10T13:47:54.298Z,95758.44
2022-10-10T13:51:06.145Z,95759.09
2022-10-10T13:53:53.261Z,95759.91
2022-10-10T13:56:28.217Z,95759.63
2022-10-10T13:59:07.115Z,95761.41
2022-10-10T14:01:40.828Z,95769.56
2022-10-10T14:04:23.742Z,95769.25
2022-10-10T14:07:05.071Z,95762.19
2022-10-10T14:09:40.831Z,95766.53
2022-10-10T14:12:26.249Z,95766.06
2022-10-10T14:14:58.759Z,95766.84
2022-10-10T14:17:30.312Z,95768.78
2022-10-10T14:20:01.253Z,95771.84
2022-10-10T14:22:30.739Z,95764.47
2022-10-10T14:25:00.107Z,95764.47
2022-10-10T14:27:32.076Z,95764.28
2022-10-10T14:30:03.546Z,95765.25
2022-10-10T14:32:33.074Z,95771.34
2022-10-10T14:35:04.652Z,95761.72
2022-10-10T14:37:38.458Z,95766.03
2022-10-10T14:40:20.739Z,95761.72
2022-10-10T14:42:50.452Z,95763.31
2022-10-10T14:45:19.913Z,95767.44
2022-10-10T14:47:49.602Z,95768.41
2022-10-10T14:50:36.109Z,95772.56
2022-10-10T14:53:05.962Z,95773.50
2022-10-10T14:55:35.394Z,95772.00
2022-10-10T14:58:04.940Z,95772.56
2022-10-10T15:00:34.997Z,95779.47
2022-10-10T15:03:04.832Z,95775.06
2022-10-10T15:05:35.668Z,95776.16
2022-10-10T15:08:06.426Z,95771.16
2022-10-10T15:10:36.494Z,95783.13
2022-10-10T15:13:06.038Z,95776.03
2022-10-10T15:15:35.576Z,95784.94
2022-10-10T15:18:15.430Z,95778.00
2022-10-10T15:20:57.002Z,95771.72
2022-10-10T15:23:26.967Z,95784.94
2022-10-10T15:26:00.209Z,95787.78
2022-10-10T15:28:29.590Z,95787.06
2022-10-10T15:31:00.087Z,95782.56
2022-10-10T15:33:29.833Z,95783.81
2022-10-10T15:36:11.487Z,95790.47
2022-10-10T15:38:42.490Z,95784.94
2022-10-10T15:41:12.210Z,95783.94
2022-10-10T15:43:51.813Z,95784.69
2022-10-10T15:46:21.845Z,95791.34
2022-10-10T15:48:51.565Z,95780.06
2022-10-10T15:51:22.622Z,95780.78
2022-10-10T15:53:52.470Z,95792.09
2022-10-10T15:56:21.864Z,95789.28
2022-10-10T15:58:57.570Z,95798.13
2022-10-10T16:01:28.858Z,95792.91
2022-10-10T16:03:59.182Z,95794.69
2022-10-10T16:06:30.083Z,95794.88
2022-10-10T16:09:16.787Z,95796.69
2022-10-10T16:11:51.403Z,95795.78
2022-10-10T16:14:20.794Z,95805.13
2022-10-10T16:16:50.245Z,95807.41
2022-10-10T16:19:19.826Z,95802.69
2022-10-10T16:21:50.614Z,95807.69
2022-10-10T16:24:20.067Z,95812.38
2022-10-10T16:26:49.549Z,95811.66
2022-10-10T16:29:19.118Z,95817.19
2022-10-10T16:31:48.690Z,95824.63
2022-10-10T16:34:18.767Z,95817.94
2022-10-10T16:36:48.220Z,95831.59
2022-10-10T16:39:19.077Z,95826.22
2022-10-10T16:41:49.564Z,95832.03
2022-10-10T16:44:19.421Z,95832.91
2022-10-10T16:46:49.112Z,95829.75
2022-10-10T16:49:20.671Z,95840.66
2022-10-10T16:51:50.218Z,95840.72
2022-10-10T16:54:21.066Z,95845.13
2022-10-10T16:56:50.561Z,95841.41
2022-10-10T16:59:19.979Z,95842.25
2022-10-10T17:01:49.391Z,95847.16
2022-10-10T17:04:18.774Z,95845.03
2022-10-10T17:06:48.139Z,95849.72
2022-10-10T17:09:17.513Z,95858.44
2022-10-10T17:11:51.351Z,95855.81
2022-10-10T17:14:21.233Z,95859.16
2022-10-10T17:17:10.934Z,95868.72
2022-10-10T17:19:40.166Z,95871.84
2022-10-10T17:22:09.952Z,95871.94
2022-10-10T17:24:39.425Z,95871.22
2022-10-10T17:27:10.180Z,95883.00
2022-10-10T17:29:39.644Z,95886.84
2022-10-10T17:32:09.166Z,95893.16
2022-10-10T17:34:38.814Z,95893.25
2022-10-10T17:37:08.170Z,95884.41
2022-10-10T17:39:38.235Z,95888.03
2022-10-10T17:42:09.006Z,95884.28
2022-10-10T17:44:45.217Z,95886.50
2022-10-10T17:47:18.395Z,95891.69
2022-10-10T17:49:47.791Z,95892.84
2022-10-10T17:52:21.057Z,95899.63
2022-10-10T17:54:50.838Z,95898.06
2022-10-10T17:57:21.693Z,95897.53
2022-10-10T17:59:51.098Z,95895.72
2022-10-10T18:02:20.787Z,95890.06
2022-10-10T18:04:52.104Z,95897.09
2022-10-10T18:07:21.569Z,95895.28
2022-10-10T18:09:52.645Z,95890.72
2022-10-10T18:12:23.538Z,95892.09
2022-10-10T18:14:52.986Z,95891.06
2022-10-10T18:17:22.417Z,95894.31
2022-10-10T18:19:51.911Z,95899.47
2022-10-10T18:22:21.380Z,95901.66
2022-10-10T18:24:50.791Z,95909.50
2022-10-10T18:27:22.030Z,95908.16
2022-10-10T18:29:51.406Z,95914.94
2022-10-10T18:32:20.871Z,95918.16
2022-10-10T18:34:50.325Z,95910.88
2022-10-10T18:37:19.781Z,95917.06
2022-10-10T18:39:49.207Z,95918.44
2022-10-10T18:42:18.670Z,95918.97
2022-10-10T18:44:49.506Z,95919.22
2022-10-10T18:47:21.476Z,95918.69
2022-10-10T18:49:50.876Z,95919.75
2022-10-10T18:52:20.421Z,95917.56
2022-10-10T18:54:50.585Z,95916.72
2022-10-10T18:57:20.117Z,95914.56
2022-10-10T18:59:50.911Z,95926.16
2022-10-10T19:02:20.324Z,95924.53
2022-10-10T19:04:50.862Z,95919.13
2022-10-10T19:07:20.266Z,95928.78
2022-10-10T19:09:50.365Z,95928.78
2022-10-10T19:12:20.098Z,95916.66
2022-10-10T19:14:51.638Z,95923.09
2022-10-10T19:17:21.039Z,95927.13
2022-10-10T19:19:52.532Z,95926.59
2022-10-10T19:22:21.964Z,95933.31
2022-10-10T19:24:54.293Z,95924.94
2022-10-10T19:27:23.749Z,95933.53
2022-10-10T19:29:54.883Z,95919.81
2022-10-10T19:32:24.352Z,95928.16
2022-10-10T19:34:54.517Z,95931.38
2022-10-10T19:37:24.962Z,95939.97
2022-10-10T19:39:56.935Z,95938.06
2022-10-10T19:45:27.278Z,95937.72
2022-10-10T19:47:56.718Z,95936.88
2022-10-10T19:50:26.174Z,95934.97
2022-10-10T19:52:55.577Z,95934.94
2022-10-10T19:55:25.218Z,95940.28
2022-10-10T19:57:54.754Z,95951.56
2022-10-10T20:01:43.847Z,95955.28
2022-10-10T20:07:16.115Z,95958.75
2022-10-10T20:09:45.839Z,95956.56
2022-10-10T20:12:15.846Z,95950.06
2022-10-10T20:14:45.269Z,95955.47
2022-10-10T20:17:14.747Z,95961.66
2022-10-10T20:19:45.929Z,95954.91
2022-10-10T20:22:15.740Z,95961.59
2022-10-10T20:24:45.175Z,95957.22
2022-10-10T20:27:14.655Z,95956.09
2022-10-10T20:29:44.224Z,95959.59
2022-10-10T20:32:13.667Z,95964.91
2022-10-10T20:34:43.110Z,95972.69
2022-10-10T20:37:13.957Z,95976.38
2022-10-10T20:39:43.518Z,95981.16
2022-10-10T20:42:13.033Z,95974.94
2022-10-10T20:44:42.682Z,95975.44
2022-10-10T20:47:12.123Z,95980.25
2022-10-10T20:49:41.766Z,95981.94
2022-10-10T20:52:11.217Z,95983.34
2022-10-10T20:54:42.357Z,95983.94
2022-10-10T20:57:11.857Z,95985.56
2022-10-10T20:59:41.456Z,95980.25
2022-10-10T21:02:15.862Z,95972.47
2022-10-10T21:04:48.053Z,95984.31
2022-10-10T21:07:17.529Z,95979.44
2022-10-10T21:09:48.411Z,95978.88
2022-10-10T21:12:17.887Z,95980.44
2022-10-10T21:14:47.462Z,95980.13
2022-10-10T21:17:17.074Z,95979.06
2022-10-10T21:19:46.548Z,95972.06
2022-10-10T21:22:15.999Z,95989.00
2022-10-10T21:24:46.905Z,95974.97
2022-10-10T21:27:17.012Z,95984.38
2022-10-10T21:29:46.506Z,95990.50
2022-10-10T21:32:16.011Z,95997.44
2022-10-10T21:34:45.458Z,95992.28
2022-10-10T21:37:14.989Z,95999.31
2022-10-10T21:39:44.430Z,95999.31
2022-10-10T21:42:15.304Z,96004.50
2022-10-10T21:44:44.824Z,95996.94
2022-10-10T21:47:14.251Z,96003.13
2022-10-10T21:49:43.951Z,95998.72
2022-10-10T21:52:26.257Z,96003.47
2022-10-10T21:54:57.706Z,95994.63
2022-10-10T21:57:28.466Z,95999.47
2022-10-10T21:59:57.907Z,96005.44
2022-10-10T22:02:27.578Z,96003.53
2022-10-10T22:04:58.936Z,95995.50
2022-10-10T22:07:28.678Z,96003.88
2022-10-10T22:09:58.419Z,95996.59
2022-10-10T22:12:29.340Z,95996.59
2022-10-10T22:14:58.928Z,95999.56
2022-10-10T22:17:28.861Z,95990.09
2022-10-10T22:19:58.296Z,96007.59
2022-10-10T22:22:28.277Z,95997.63
2022-10-10T22:24:59.514Z,96001.41
2022-10-10T22:27:40.571Z,96002.72
2022-10-10T22:30:13.845Z,96003.00
2022-10-10T22:32:43.414Z,95999.50
2022-10-10T22:35:14.198Z,96005.13
2022-10-10T22:37:43.575Z,96012.19
2022-10-10T22:40:13.885Z,96010.63
2022-10-10T22:42:44.657Z,96008.22
2022-10-10T22:45:14.066Z,96022.75
2022-10-10T22:47:43.570Z,96025.72
2022-10-10T22:50:13.397Z,96032.69
2022-10-10T22:52:43.824Z,96017.88
2022-10-10T22:55:17.978Z,96023.28
2022-10-10T22:57:49.361Z,96023.00
2022-10-10T23:00:19.442Z,96023.03
2022-10-10T23:02:48.826Z,96026.84
2022-10-10T23:05:18.493Z,96020.09
2022-10-10T23:07:47.833Z,96021.50
2022-10-10T23:10:17.460Z,96024.47
2022-10-10T23:12:48.236Z,96017.19
2022-10-10T23:15:17.876Z,96025.28
2022-10-10T23:17:47.292Z,96026.91
2022-10-10T23:20:16.881Z,96023.94
2022-10-10T23:22:46.271Z,96025.34
2022-10-10T23:25:15.797Z,96022.38
2022-10-10T23:27:45.217Z,96029.69
2022-10-10T23:30:16.483Z,96035.91
2022-10-10T23:32:45.906Z,96039.69
2022-10-10T23:35:15.257Z,96037.53
2022-10-10T23:37:44.758Z,96043.47
2022-10-10T23:40:14.176Z,96055.31
2022-10-10T23:42:43.550Z,96050.44
2022-10-10T23:45:12.921Z,96043.97
2022-10-10T23:47:43.653Z,96057.47
2022-10-10T23:50:13.753Z,96058.81
2022-10-10T23:52:43.273Z,96060.91
2022-10-10T23:55:12.683Z,96061.19
2022-10-10T23:57:42.064Z,96064.44
